Time;durP1;ratioP1;P1;durP2;ratioP2;P2;SDS_P1;SDS_P2;PMS_P1;PMS_P2;Temp;Humidity;BMP_temperature;BMP_pressure;BME280_temperature;BME280_humidity;BME280_pressure;Samples;Min_cycle;Max_cycle;Signal;HPM_P1;HPM_P2
2022/01/17 00:01:28;;;;;;;11.03;3.80;;;;;;;2.65;62.64;99760.88;6247704;23;20580;-90
2022/01/17 00:03:54;;;;;;;5.87;3.70;;;;;;;2.77;62.35;99759.88;6247356;23;20142;-89
2022/01/17 00:06:19;;;;;;;5.43;3.10;;;;;;;2.74;62.46;99758.19;6247377;23;20156;-89
2022/01/17 00:08:46;;;;;;;3.93;2.67;;;;;;;2.72;62.29;99765.13;6247326;23;20220;-89
2022/01/17 00:11:12;;;;;;;6.70;2.93;;;;;;;2.73;61.94;99761.63;6248089;23;20224;-90
2022/01/17 00:13:39;;;;;;;7.27;3.47;;;;;;;2.66;62.47;99759.13;6247384;23;20181;-90
2022/01/17 00:16:14;;;;;;;5.33;3.27;;;;;;;2.36;62.95;99762.88;6247993;23;20379;-89
2022/01/17 00:19:05;;;;;;;8.10;3.43;;;;;;;2.14;64.02;99753.63;6247758;23;20133;-89
2022/01/17 00:21:25;;;;;;;5.23;2.00;;;;;;;2.23;64.22;99751.81;6247038;23;20156;-90
2022/01/17 00:23:51;;;;;;;10.17;2.67;;;;;;;2.10;65.09;99750.19;6247253;23;20156;-90
2022/01/17 00:26:17;;;;;;;13.00;3.07;;;;;;;2.18;65.00;99761.34;6247146;23;20152;-89
2022/01/17 00:28:42;;;;;;;6.37;3.13;;;;;;;2.27;64.50;99760.41;6221781;23;20160;-89
2022/01/17 00:31:07;;;;;;;5.20;2.40;;;;;;;2.20;64.38;99748.41;6247272;23;20227;-89
2022/01/17 00:33:34;;;;;;;10.60;3.40;;;;;;;1.92;65.36;99752.09;6247407;23;20177;-89
2022/01/17 00:36:00;;;;;;;4.87;2.07;;;;;;;1.83;66.13;99751.28;6247134;23;20156;-89
2022/01/17 00:38:25;;;;;;;6.03;2.80;;;;;;;2.06;65.79;99756.28;6247445;23;20380;-89
2022/01/17 00:40:51;;;;;;;3.77;2.47;;;;;;;2.21;65.28;99748.38;6246932;23;20168;-89
2022/01/17 00:43:16;;;;;;;4.23;2.20;;;;;;;2.21;65.05;99742.34;6220618;23;20155;-89
2022/01/17 00:45:44;;;;;;;5.60;2.10;;;;;;;2.23;64.42;99756.97;6246974;23;20485;-89
2022/01/17 00:48:10;;;;;;;5.80;1.97;;;;;;;2.26;64.54;99753.50;6246992;23;20596;-90
2022/01/17 00:50:39;;;;;;;7.90;3.10;;;;;;;2.31;64.54;99751.72;6220508;23;20179;-90
2022/01/17 00:53:08;;;;;;;10.17;3.17;;;;;;;2.41;64.10;99748.22;6247147;23;20173;-89
2022/01/17 00:55:37;;;;;;;4.27;2.87;;;;;;;2.42;63.29;99742.13;6220908;23;20168;-89
2022/01/17 00:58:03;;;;;;;5.70;3.20;;;;;;;2.36;63.18;99732.72;6246684;23;20403;-90
2022/01/17 01:00:29;;;;;;;5.30;4.47;;;;;;;2.35;63.04;99732.75;6246887;23;20145;-89
2022/01/17 01:02:55;;;;;;;3.93;2.30;;;;;;;2.31;62.75;99728.44;6247210;23;20151;-89
2022/01/17 01:05:21;;;;;;;4.33;2.57;;;;;;;2.34;62.83;99731.00;6246933;23;20211;-89
2022/01/17 01:07:47;;;;;;;9.47;3.80;;;;;;;2.40;62.72;99715.44;6220358;23;20152;-89
2022/01/17 01:10:13;;;;;;;11.60;3.47;;;;;;;2.45;62.75;99716.25;6246766;23;20183;-89
2022/01/17 01:12:44;;;;;;;10.80;3.73;;;;;;;2.47;62.34;99709.31;6246709;23;20177;-89
2022/01/17 01:15:17;;;;;;;8.33;3.47;;;;;;;2.34;62.45;99702.56;6247116;23;20140;-89
2022/01/17 01:17:55;;;;;;;6.97;3.23;;;;;;;2.41;62.17;99699.06;6247495;23;20391;-89
2022/01/17 01:28:42;;;;;;;4.07;1.73;;;;;;;2.46;61.66;99686.94;6247326;23;20359;-89
2022/01/17 01:31:16;;;;;;;8.97;3.53;;;;;;;2.20;61.66;99681.19;6220075;23;20152;-89
2022/01/17 01:33:49;;;;;;;3.77;1.93;;;;;;;2.12;62.44;99675.22;6246557;23;20168;-89
2022/01/17 01:36:22;;;;;;;3.90;1.20;;;;;;;1.92;62.54;99667.66;6246979;23;20349;-89
2022/01/17 01:38:48;;;;;;;4.73;1.87;;;;;;;1.80;63.71;99665.19;6220309;23;20247;-89
2022/01/17 01:41:14;;;;;;;4.67;2.77;;;;;;;1.63;64.56;99665.31;6219894;23;20634;-89
2022/01/17 01:43:39;;;;;;;2.20;2.00;;;;;;;1.83;64.44;99660.81;6246465;23;20230;-89
2022/01/17 01:46:05;;;;;;;3.87;2.63;;;;;;;1.91;64.02;99652.16;6219980;23;20164;-89
2022/01/17 01:48:33;;;;;;;1.70;1.23;;;;;;;1.97;63.60;99654.66;6219958;23;20577;-89
2022/01/17 01:50:58;;;;;;;3.17;1.43;;;;;;;2.05;62.91;99642.53;6246391;23;20155;-89
2022/01/17 01:53:25;;;;;;;1.87;1.33;;;;;;;2.03;63.20;99637.38;6220229;23;20191;-89
2022/01/17 01:55:53;;;;;;;4.00;2.17;;;;;;;2.09;62.97;99633.88;6246375;23;20481;-89
2022/01/17 01:58:21;;;;;;;2.87;1.63;;;;;;;2.13;62.27;99633.81;6246401;23;20251;-89
2022/01/17 02:00:47;;;;;;;7.27;2.17;;;;;;;2.12;62.07;99629.53;6246641;23;20145;-89
2022/01/17 02:03:12;;;;;;;3.67;2.07;;;;;;;2.16;61.84;99617.41;6246259;23;20372;-89
2022/01/17 02:05:38;;;;;;;4.30;1.50;;;;;;;2.17;62.01;99609.66;6246302;23;20596;-89
2022/01/17 02:08:05;;;;;;;3.50;1.73;;;;;;;2.11;62.40;99608.84;6246959;23;20232;-89
2022/01/17 02:10:31;;;;;;;4.80;2.73;;;;;;;2.09;61.91;99606.31;6220402;23;20156;-89
2022/01/17 02:12:57;;;;;;;10.33;2.57;;;;;;;2.06;62.12;99605.47;6246115;23;20451;-89
2022/01/17 02:15:22;;;;;;;2.63;1.73;;;;;;;2.10;61.51;99607.13;6246300;23;20171;-89
2022/01/17 02:17:58;;;;;;;5.30;2.80;;;;;;;2.05;61.32;99603.75;6220111;23;20161;-89
2022/01/17 02:20:44;;;;;;;5.17;2.60;;;;;;;2.02;61.38;99598.63;6220814;23;20138;-89
2022/01/17 02:23:11;;;;;;;6.87;2.27;;;;;;;2.06;61.40;99605.47;6219701;23;20363;-89
2022/01/17 02:25:37;;;;;;;5.80;2.03;;;;;;;2.01;61.58;99602.09;6220008;23;20414;-89
2022/01/17 02:28:03;;;;;;;5.83;3.17;;;;;;;1.92;61.34;99602.16;6246484;23;20379;-89
2022/01/17 02:30:31;;;;;;;8.20;3.30;;;;;;;1.93;61.73;99603.88;6246077;23;20147;-89
2022/01/17 02:32:59;;;;;;;3.73;1.83;;;;;;;1.91;61.81;99610.81;6219811;23;20188;-89
2022/01/17 02:35:25;;;;;;;2.47;1.60;;;;;;;1.77;62.17;99604.06;6246388;23;20222;-89
2022/01/17 02:37:51;;;;;;;6.13;1.70;;;;;;;1.72;61.97;99611.00;6219961;23;20372;-89
2022/01/17 02:40:18;;;;;;;3.43;2.17;;;;;;;1.69;62.77;99603.28;6219566;23;20402;-89
2022/01/17 02:42:47;;;;;;;5.03;1.40;;;;;;;1.73;62.44;99607.53;6220858;23;20587;-89
2022/01/17 02:45:31;;;;;;;2.93;1.87;;;;;;;1.82;62.47;99594.53;6245879;23;21009;-89
2022/01/17 02:48:04;;;;;;;7.37;1.53;;;;;;;1.76;62.27;99602.31;6220530;23;20417;-89
2022/01/17 02:50:30;;;;;;;7.37;3.67;;;;;;;1.76;62.53;99607.50;6245909;23;20396;-89
2022/01/17 02:53:00;;;;;;;2.37;1.47;;;;;;;1.77;62.36;99592.84;6246104;23;20426;-89
2022/01/17 02:55:27;;;;;;;3.80;1.90;;;;;;;1.64;62.45;99586.09;6219377;23;20185;-88
2022/01/17 02:57:53;;;;;;;3.83;3.37;;;;;;;1.56;62.66;99583.59;6219849;23;20383;-89
2022/01/17 03:00:18;;;;;;;7.80;2.40;;;;;;;1.62;62.92;99582.69;6246165;23;20725;-89
2022/01/17 03:02:48;;;;;;;6.73;2.27;;;;;;;1.62;63.15;99583.53;6219787;23;20149;-89
2022/01/17 03:05:14;;;;;;;3.37;1.50;;;;;;;1.62;62.91;99577.50;6219212;23;20190;-89
2022/01/17 03:07:40;;;;;;;7.40;2.43;;;;;;;1.58;62.96;99581.84;6246133;23;20383;-89
2022/01/17 03:10:12;;;;;;;7.70;3.27;;;;;;;1.58;63.54;99576.66;6219687;23;20483;-89
2022/01/17 03:12:37;;;;;;;4.33;1.50;;;;;;;1.67;62.50;99578.31;6246374;23;20260;-89
2022/01/17 03:15:03;;;;;;;8.83;2.97;;;;;;;1.63;62.46;99576.63;6245850;23;20381;-89
2022/01/17 03:17:29;;;;;;;5.20;2.47;;;;;;;1.56;62.61;99582.72;6245988;23;20638;-89
2022/01/17 03:19:55;;;;;;;10.97;3.37;;;;;;;1.50;62.80;99573.31;6246067;23;20149;-89
2022/01/17 03:22:20;;;;;;;10.30;4.27;;;;;;;1.29;63.79;99576.06;6221058;23;20155;-89
2022/01/17 03:24:46;;;;;;;7.63;3.37;;;;;;;1.27;64.05;99571.78;6221694;23;20618;-89
2022/01/17 03:27:11;;;;;;;4.37;2.20;;;;;;;1.34;63.82;99571.72;6221398;23;20157;-89
2022/01/17 03:29:36;;;;;;;9.83;3.53;;;;;;;1.39;63.65;99569.94;6221664;23;20456;-89
2022/01/17 03:32:02;;;;;;;5.10;2.53;;;;;;;1.34;64.06;99565.72;6222593;23;20154;-89
2022/01/17 03:34:28;;;;;;;12.87;3.87;;;;;;;1.38;64.01;99573.44;6248003;23;20210;-89
2022/01/17 03:36:53;;;;;;;4.77;2.37;;;;;;;1.36;63.87;99575.19;6221618;23;20158;-89
2022/01/17 03:39:19;;;;;;;7.10;3.40;;;;;;;1.35;63.45;99573.44;6221110;23;20161;-89
2022/01/17 03:41:44;;;;;;;5.07;2.63;;;;;;;1.42;63.44;99569.94;6247684;23;20593;-90
2022/01/17 03:44:10;;;;;;;3.13;2.07;;;;;;;1.41;63.29;99567.38;6248335;23;20153;-89
2022/01/17 03:46:37;;;;;;;14.27;3.97;;;;;;;1.37;62.96;99570.84;6221506;23;20162;-89
2022/01/17 03:49:03;;;;;;;5.50;2.87;;;;;;;1.22;63.11;99564.09;6221126;23;20149;-89
2022/01/17 03:51:29;;;;;;;2.63;2.03;;;;;;;0.98;64.23;99572.03;6221025;23;20414;-89
2022/01/17 03:53:55;;;;;;;7.37;2.30;;;;;;;1.03;64.65;99572.84;6247840;23;20927;-89
2022/01/17 03:56:20;;;;;;;5.07;2.90;;;;;;;1.14;64.80;99568.47;6221112;23;20156;-89
2022/01/17 03:58:47;;;;;;;11.63;2.60;;;;;;;1.19;64.44;99559.81;6221773;23;20584;-89
2022/01/17 04:01:13;;;;;;;6.93;2.93;;;;;;;1.24;63.63;99562.34;6247814;23;20573;-89
2022/01/17 04:03:39;;;;;;;5.97;3.30;;;;;;;1.29;63.74;99563.16;6247804;23;20370;-89
2022/01/17 04:06:04;;;;;;;4.80;2.73;;;;;;;1.22;63.48;99552.03;6221459;23;20400;-90
2022/01/17 04:08:30;;;;;;;9.80;2.80;;;;;;;1.16;63.30;99556.38;6247771;23;20216;-89
2022/01/17 04:10:56;;;;;;;11.53;3.30;;;;;;;1.14;63.91;99558.13;6247406;23;20601;-89
2022/01/17 04:13:22;;;;;;;10.30;4.97;;;;;;;1.11;63.45;99553.00;6220759;23;20178;-89
2022/01/17 04:15:48;;;;;;;16.63;6.00;;;;;;;0.99;63.66;99553.97;6222318;23;20462;-89
2022/01/17 04:18:15;;;;;;;14.27;7.17;;;;;;;1.00;64.04;99557.38;6220876;23;20381;-89
2022/01/17 04:20:42;;;;;;;11.07;6.13;;;;;;;0.99;63.58;99558.25;6247694;23;20201;-89
2022/01/17 04:23:11;;;;;;;18.70;8.23;;;;;;;1.08;63.47;99564.19;6221046;23;20864;-89
2022/01/17 04:25:39;;;;;;;11.77;6.53;;;;;;;1.03;63.15;99570.25;6221197;23;20395;-89
2022/01/17 04:28:06;;;;;;;15.83;8.33;;;;;;;0.97;63.27;99570.31;6221873;23;20765;-89
2022/01/17 04:30:32;;;;;;;25.03;11.17;;;;;;;0.87;63.36;99569.53;6221096;23;20415;-89
2022/01/17 04:32:58;;;;;;;7.90;5.00;;;;;;;0.84;63.00;99572.13;6245764;22;20931;-90
2022/01/17 04:35:25;;;;;;;13.50;7.33;;;;;;;0.83;63.01;99566.97;6247506;23;20489;-89
2022/01/17 04:37:54;;;;;;;9.63;5.50;;;;;;;0.78;63.54;99573.88;6220617;23;20385;-89
2022/01/17 04:40:21;;;;;;;6.63;4.70;;;;;;;0.71;63.65;99572.22;6247187;23;20397;-89
2022/01/17 04:42:48;;;;;;;7.47;3.33;;;;;;;0.46;64.17;99567.19;6221875;23;20388;-89
2022/01/17 04:45:16;;;;;;;6.03;3.77;;;;;;;0.38;64.97;99571.53;6221338;23;20471;-89
2022/01/17 04:47:45;;;;;;;9.43;3.77;;;;;;;0.55;65.44;99581.78;6247395;23;20378;-89
2022/01/17 04:50:13;;;;;;;10.13;3.57;;;;;;;0.54;65.36;99580.06;6220596;23;20416;-89
2022/01/17 04:52:39;;;;;;;8.07;5.33;;;;;;;0.53;65.26;99563.72;6220754;23;20431;-89
2022/01/17 04:55:08;;;;;;;7.77;3.77;;;;;;;0.56;65.67;99573.16;6220401;23;20386;-89
2022/01/17 04:57:34;;;;;;;6.63;3.47;;;;;;;0.59;65.22;99579.16;6220555;23;20179;-89
2022/01/17 05:00:00;;;;;;;7.77;2.63;;;;;;;0.60;64.93;99580.84;6220881;23;20731;-89
2022/01/17 05:02:25;;;;;;;5.70;2.90;;;;;;;0.58;64.58;99580.03;6220377;23;20162;-89
2022/01/17 05:04:51;;;;;;;5.03;2.43;;;;;;;0.48;64.69;99570.63;6247292;23;20152;-89
2022/01/17 05:07:17;;;;;;;2.97;1.60;;;;;;;0.30;66.08;99570.72;6246869;23;20157;-89
2022/01/17 05:09:43;;;;;;;10.00;4.63;;;;;;;0.46;65.67;99572.34;6220835;23;20169;-89
2022/01/17 05:12:10;;;;;;;9.07;3.87;;;;;;;0.58;65.44;99571.41;6247433;23;20154;-89
2022/01/17 05:14:40;;;;;;;5.27;2.70;;;;;;;0.54;65.29;99570.59;6220635;23;20398;-89
2022/01/17 05:17:22;;;;;;;2.53;1.70;;;;;;;0.42;65.21;99562.91;6220825;23;20384;-90
2022/01/17 05:19:55;;;;;;;7.17;2.83;;;;;;;0.30;66.40;99565.56;6220287;23;20404;-89
2022/01/17 05:22:22;;;;;;;9.13;2.60;;;;;;;0.31;66.29;99556.97;6221386;23;20438;-89
2022/01/17 05:24:47;;;;;;;5.90;3.87;;;;;;;0.38;66.62;99553.50;6220204;23;20380;-89
2022/01/17 05:27:13;;;;;;;5.50;2.93;;;;;;;0.49;66.07;99556.88;6220251;23;20388;-89
2022/01/17 05:29:39;;;;;;;3.17;2.00;;;;;;;0.58;66.02;99559.38;6220188;23;20158;-89
2022/01/17 05:32:05;;;;;;;4.40;2.07;;;;;;;0.66;65.84;99559.34;6221147;23;20395;-89
2022/01/17 05:34:34;;;;;;;7.70;3.13;;;;;;;0.67;64.97;99558.47;6221381;23;20193;-89
2022/01/17 05:37:01;;;;;;;6.00;3.10;;;;;;;0.70;64.96;99555.03;6220500;23;20383;-89
2022/01/17 05:39:27;;;;;;;6.33;3.10;;;;;;;0.77;64.85;99551.53;6220196;23;20435;-89
2022/01/17 05:41:53;;;;;;;9.20;3.97;;;;;;;0.75;64.13;99561.00;6221191;23;20393;-89
2022/01/17 05:44:18;;;;;;;8.80;3.53;;;;;;;0.78;64.09;99553.25;6220022;23;20162;-89
2022/01/17 05:46:44;;;;;;;5.20;2.57;;;;;;;0.73;63.85;99542.13;6220396;23;20507;-89
2022/01/17 05:49:09;;;;;;;4.63;2.87;;;;;;;0.69;63.83;99530.94;6220361;23;20154;-89
2022/01/17 05:51:35;;;;;;;11.87;3.83;;;;;;;0.68;64.30;99531.84;6246467;23;20174;-89
2022/01/17 05:54:00;;;;;;;5.60;1.73;;;;;;;0.64;64.49;99522.38;6220932;23;20186;-89
2022/01/17 05:56:25;;;;;;;12.57;4.30;;;;;;;0.58;64.96;99533.59;6221277;23;20284;-89
2022/01/17 05:58:51;;;;;;;6.50;3.70;;;;;;;0.46;65.67;99520.78;6246370;23;20557;-89
2022/01/17 06:01:16;;;;;;;5.03;3.27;;;;;;;0.50;66.13;99532.78;6220987;23;20236;-89
2022/01/17 06:03:42;;;;;;;6.40;3.73;;;;;;;0.50;65.95;99532.78;6219958;23;20596;-89
2022/01/17 06:06:07;;;;;;;24.20;8.70;;;;;;;0.56;65.29;99540.50;6220260;23;20456;-90
2022/01/17 06:08:34;;;;;;;27.43;9.47;;;;;;;0.44;65.40;99538.00;6220135;23;20163;-90
2022/01/17 06:11:00;;;;;;;27.57;7.13;;;;;;;0.54;65.28;99537.06;6220906;23;20528;-89
2022/01/17 06:13:25;;;;;;;33.47;9.60;;;;;;;0.49;65.51;99531.09;6219991;23;20503;-90
2022/01/17 06:15:51;;;;;;;22.47;8.07;;;;;;;0.53;65.41;99527.59;6246491;23;20405;-89
2022/01/17 06:18:16;;;;;;;15.73;7.90;;;;;;;0.64;65.26;99522.38;6219829;23;20192;-89
2022/01/17 06:20:42;;;;;;;9.97;6.57;;;;;;;0.77;64.17;99520.56;6246443;23;20592;-89
2022/01/17 06:23:07;;;;;;;15.03;8.00;;;;;;;0.66;64.25;99528.38;6219732;23;20157;-89
2022/01/17 06:25:33;;;;;;;19.53;10.07;;;;;;;0.73;64.51;99529.22;6246430;23;20159;-89
2022/01/17 06:27:59;;;;;;;18.67;8.80;;;;;;;0.80;64.45;99526.56;6246033;23;20147;-89
2022/01/17 06:30:25;;;;;;;16.23;7.80;;;;;;;1.05;64.63;99532.38;6246404;23;20158;-89
2022/01/17 06:32:50;;;;;;;22.30;8.93;;;;;;;1.53;64.81;99525.91;6219736;23;20443;-88
2022/01/17 06:35:16;;;;;;;15.37;7.40;;;;;;;1.94;64.14;99522.91;6219539;23;20188;-88
2022/01/17 06:37:42;;;;;;;17.63;7.90;;;;;;;2.27;63.04;99517.28;6245970;23;20220;-88
2022/01/17 06:40:08;;;;;;;14.53;7.73;;;;;;;2.62;62.15;99524.56;6246273;23;20191;-89
2022/01/17 06:42:34;;;;;;;15.13;5.80;;;;;;;2.94;60.71;99527.50;6245888;23;20614;-88
2022/01/17 06:45:04;;;;;;;9.00;6.30;;;;;;;3.23;59.71;99524.44;6245834;23;20840;-88
2022/01/17 06:47:32;;;;;;;19.40;8.17;;;;;;;3.36;59.30;99521.63;6219432;23;20426;-88
2022/01/17 06:49:58;;;;;;;24.47;11.27;;;;;;;3.39;59.25;99518.13;6245854;23;20169;-88
2022/01/17 06:52:24;;;;;;;23.83;9.10;;;;;;;3.53;59.46;99498.00;6245701;23;20913;-88
2022/01/17 06:54:52;;;;;;;18.80;8.77;;;;;;;3.71;59.97;99497.66;6245809;23;20459;-87
2022/01/17 06:57:18;;;;;;;10.77;5.23;;;;;;;3.92;59.51;99489.47;6245505;23;20149;-88
2022/01/17 06:59:44;;;;;;;14.47;4.57;;;;;;;4.18;58.67;99484.59;6246161;23;20145;-88
2022/01/17 07:02:10;;;;;;;13.27;4.30;;;;;;;4.47;57.00;99486.53;6246102;23;20156;-88
2022/01/17 07:04:36;;;;;;;10.77;4.90;;;;;;;4.68;55.03;99487.78;6246168;23;20228;-89
2022/01/17 07:07:02;;;;;;;11.53;5.57;;;;;;;4.66;53.30;99476.59;6219302;23;20178;-89
2022/01/17 07:09:29;;;;;;;11.20;5.57;;;;;;;4.94;54.00;99475.03;6245703;23;20149;-89
2022/01/17 07:11:58;;;;;;;18.07;6.70;;;;;;;5.34;53.27;99465.34;6245683;23;20156;-89
2022/01/17 07:14:30;;;;;;;9.83;5.00;;;;;;;5.74;51.41;99453.88;6245960;23;20169;-89
2022/01/17 07:16:56;;;;;;;5.40;3.30;;;;;;;5.97;50.60;99447.16;6246092;23;20559;-89
2022/01/17 07:19:24;;;;;;;11.80;4.10;;;;;;;5.99;49.39;99429.75;6219580;23;20153;-90
2022/01/17 07:21:51;;;;;;;14.33;6.87;;;;;;;6.16;50.15;99443.09;6246065;23;20145;-90
2022/01/17 07:24:19;;;;;;;23.73;9.87;;;;;;;6.07;49.91;99435.56;6219250;23;20232;-90
2022/01/17 07:26:44;;;;;;;13.53;7.70;;;;;;;6.02;50.02;99434.00;6246009;23;20211;-90
2022/01/17 07:29:10;;;;;;;18.67;8.33;;;;;;;5.98;50.59;99434.97;6219475;23;20157;-89
2022/01/17 07:31:36;;;;;;;18.50;6.23;;;;;;;5.95;50.84;99446.31;6246306;23;20160;-88
2022/01/17 07:34:02;;;;;;;14.53;6.70;;;;;;;5.98;50.40;99446.22;6245493;23;20169;-88
2022/01/17 07:36:28;;;;;;;13.20;6.10;;;;;;;6.02;50.00;99441.81;6245619;23;20149;-88
2022/01/17 07:38:54;;;;;;;19.50;6.17;;;;;;;5.85;49.73;99429.28;6246200;23;20145;-88
2022/01/17 07:41:19;;;;;;;9.70;5.40;;;;;;;5.82;50.68;99431.06;6245439;23;20169;-88
2022/01/17 07:43:45;;;;;;;13.63;5.00;;;;;;;5.76;50.33;99423.47;6245532;23;20145;-88
2022/01/17 07:46:55;;;;;;;12.43;5.57;;;;;;;5.68;50.63;99415.88;6245567;23;20145;-88
2022/01/17 07:51:34;;;;;;;6.97;3.03;;;;;;;5.55;50.52;99397.16;6245664;23;20179;-88
2022/01/17 07:53:59;;;;;;;12.87;3.67;;;;;;;5.52;51.56;99389.47;6245450;23;20480;-88
2022/01/17 07:56:25;;;;;;;6.60;3.20;;;;;;;5.46;52.21;99396.56;6246168;23;20211;-89
2022/01/17 07:58:51;;;;;;;13.47;4.53;;;;;;;5.38;53.34;99412.38;6219102;23;20210;-89
2022/01/17 08:01:16;;;;;;;11.03;3.57;;;;;;;5.45;53.66;99416.50;6219148;23;20149;-89
2022/01/17 08:03:42;;;;;;;6.40;3.57;;;;;;;5.59;54.22;99417.00;6219144;23;20149;-90
2022/01/17 08:06:08;;;;;;;8.13;4.10;;;;;;;5.70;53.58;99441.84;6219022;23;20154;-90
2022/01/17 08:08:33;;;;;;;8.10;3.40;;;;;;;5.87;53.17;99463.06;6219772;23;20154;-90
2022/01/17 08:10:59;;;;;;;5.30;3.10;;;;;;;5.98;53.20;99471.38;6247764;23;20149;-90
2022/01/17 08:13:29;;;;;;;4.97;2.50;;;;;;;6.22;52.84;99494.09;6247335;23;20248;-90
2022/01/17 09:33:10;;;;;;;;;;;;;;;;;;;;;
2022/01/17 10:04:06;;;;;;;;;;;;;;;;;;;;;
2022/01/17 10:10:00;;;;;;;4.70;2.10;;;;;;;11.10;38.15;99272.75;6098222;23;20168;-95
2022/01/17 10:13:13;;;;;;;6.43;2.73;;;;;;;11.01;38.50;99265.38;6076754;23;20159;-91
2022/01/17 10:15:59;;;;;;;6.03;2.70;;;;;;;11.09;38.29;99264.97;5992366;23;20218;-94
2022/01/17 10:19:09;;;;;;;3.97;1.90;;;;;;;11.11;37.98;99249.97;6130183;23;20477;-95
2022/01/17 10:40:49;;;;;;;4.57;1.73;;;;;;;11.87;36.09;99209.09;6096664;23;20161;-93
2022/01/17 10:43:42;;;;;;;;;;;;;;;;;;;;;
2022/01/17 10:46:29;;;;;;;1.67;0.77;;;;;;;12.47;36.20;99188.94;6218803;23;20217;-94
2022/01/17 10:48:56;;;;;;;7.77;1.20;;;;;;;12.32;35.65;99185.41;6216471;23;20147;-90
2022/01/17 10:51:58;;;;;;;;;;;;;;;;;;;;;
2022/01/17 10:54:49;;;;;;;2.57;1.33;;;;;;;12.82;35.82;99185.88;6170051;23;20271;-91
2022/01/17 10:57:42;;;;;;;2.73;0.77;;;;;;;12.75;35.20;99179.28;6204762;23;20183;-91
2022/01/17 11:00:59;;;;;;;4.13;1.20;;;;;;;12.64;35.69;99188.75;6176901;23;20167;-93
2022/01/17 11:07:12;;;;;;;1.60;0.80;;;;;;;13.42;35.23;99180.38;6016251;23;20239;-94
2022/01/17 11:10:35;;;;;;;;;;;;;;;;;;;;;
2022/01/17 11:13:44;;;;;;;;;;;;;;;;;;;;;
2022/01/17 11:16:39;;;;;;;3.37;1.27;;;;;;;13.31;34.37;99152.09;5913844;24;20235;-92
2022/01/17 11:25:55;;;;;;;;;;;;;;;;;;;;;
2022/01/17 11:28:28;;;;;;;1.23;0.90;;;;;;;13.77;34.48;99147.38;6010919;23;20241;-88
2022/01/17 11:30:59;;;;;;;4.17;1.20;;;;;;;13.39;33.63;99164.81;6053395;23;20163;-91
2022/01/17 11:33:26;;;;;;;6.73;1.80;;;;;;;13.22;33.89;99165.88;6125628;23;20184;-91
2022/01/17 11:39:48;;;;;;;;;;;;;;;;;;;;;
2022/01/17 11:49:34;;;;;;;3.60;1.07;;;;;;;13.93;33.05;99155.13;5874801;24;20531;-93
2022/01/17 11:52:00;;;;;;;2.73;1.07;;;;;;;13.66;33.66;99146.38;5875209;24;20165;-93
2022/01/17 11:55:06;;;;;;;;;;;;;;;;;;;;;
2022/01/17 11:58:13;;;;;;;3.83;1.57;;;;;;;13.62;33.92;99140.47;5928403;24;20267;-94
2022/01/17 12:01:35;;;;;;;2.97;1.23;;;;;;;13.44;34.54;99133.78;5961033;24;20159;-93
2022/01/17 12:04:04;;;;;;;3.90;1.60;;;;;;;13.45;34.55;99141.56;5873888;24;20166;-90
2022/01/17 12:07:07;;;;;;;2.37;1.07;;;;;;;13.53;34.94;99146.31;5955752;24;20588;-92
2022/01/17 12:10:05;;;;;;;1.70;0.97;;;;;;;13.30;34.91;99162.75;6013045;23;20184;-92
2022/01/17 12:16:23;;;;;;;1.43;0.63;;;;;;;13.42;32.58;99140.91;5955739;24;20474;-91
2022/01/17 12:19:14;;;;;;;1.63;0.77;;;;;;;13.28;32.66;99143.59;6019788;23;20157;-93
2022/01/17 12:22:04;;;;;;;3.07;0.97;;;;;;;13.47;32.94;99130.91;6068775;23;20216;-94
2022/01/17 12:24:40;;;;;;;1.77;0.70;;;;;;;12.97;31.87;99147.22;6201164;23;20167;-92
2022/01/17 12:27:10;;;;;;;2.73;0.87;;;;;;;12.92;32.43;99136.16;6185033;23;20165;-90
2022/01/17 12:30:09;;;;;;;2.23;0.73;;;;;;;12.98;33.73;99120.00;6192083;23;20577;-92
2022/01/17 12:32:36;;;;;;;1.53;0.70;;;;;;;13.08;34.46;99107.97;6190776;23;20150;-90
2022/01/17 12:35:08;;;;;;;1.53;0.80;;;;;;;13.30;34.23;99113.59;6217178;23;20153;-92
2022/01/17 12:38:06;;;;;;;2.17;0.80;;;;;;;13.38;32.98;99111.31;6191329;23;20457;-94
2022/01/17 12:40:35;;;;;;;2.13;0.67;;;;;;;13.34;31.65;99087.88;6218017;23;20134;-90
2022/01/17 12:43:07;;;;;;;1.97;0.80;;;;;;;13.37;32.40;99103.50;6191028;23;20581;-92
2022/01/17 12:46:10;;;;;;;1.53;0.67;;;;;;;13.40;32.42;99082.22;6191398;23;20200;-91
2022/01/17 12:48:39;;;;;;;2.30;1.23;;;;;;;13.53;33.72;99051.53;6072961;23;20148;-92
2022/01/17 12:51:15;;;;;;;1.53;0.77;;;;;;;13.28;33.81;99046.19;6217938;23;20145;-93
2022/01/17 12:53:50;;;;;;;0.87;0.50;;;;;;;12.94;34.27;99037.78;6216958;23;20196;-92
2022/01/17 12:56:31;;;;;;;0.43;0.30;;;;;;;12.87;34.51;99023.31;6217005;23;20172;-93
2022/01/17 12:59:02;;;;;;;2.03;0.93;;;;;;;12.75;34.50;99015.38;6218023;23;20573;-89
2022/01/17 13:01:34;;;;;;;4.37;1.00;;;;;;;12.98;35.64;99037.59;6192074;23;20146;-91
2022/01/17 13:04:11;;;;;;;1.57;0.70;;;;;;;13.14;34.96;99039.16;6217779;23;20145;-91
2022/01/17 13:06:51;;;;;;;2.53;0.83;;;;;;;13.13;34.48;99039.28;6217359;23;20602;-90
2022/01/17 13:09:24;;;;;;;1.23;1.13;;;;;;;13.01;33.21;99045.28;6191115;23;20538;-89
2022/01/17 13:11:57;;;;;;;0.97;0.77;;;;;;;13.06;33.97;99040.56;6216856;23;20464;-89
2022/01/17 13:14:24;;;;;;;0.53;0.30;;;;;;;13.01;33.96;99040.88;6190274;23;20194;-88
2022/01/17 13:16:51;;;;;;;1.53;0.77;;;;;;;12.90;34.12;99030.19;6216526;23;20227;-87
2022/01/17 13:19:22;;;;;;;2.63;1.23;;;;;;;12.82;35.02;99043.81;6189192;23;20169;-90
2022/01/17 13:21:49;;;;;;;2.77;1.00;;;;;;;12.67;34.75;99038.69;6216963;23;20137;-88
2022/01/17 13:27:33;;;;;;;1.80;0.70;;;;;;;12.65;34.96;99014.28;6216679;23;20213;-91
2022/01/17 13:30:05;;;;;;;0.63;0.53;;;;;;;12.78;34.79;98994.16;6160697;23;20669;-93
2022/01/17 13:33:03;;;;;;;3.43;1.20;;;;;;;12.81;35.23;99002.66;6216649;23;20225;-92
2022/01/17 13:35:53;;;;;;;;;;;;;;;;;;;;;
2022/01/17 13:38:22;;;;;;;2.73;1.30;;;;;;;12.31;35.71;98997.97;6216464;23;20242;-88
2022/01/17 13:40:56;;;;;;;6.53;1.40;;;;;;;12.35;35.94;98990.72;6189792;23;20246;-89
2022/01/17 13:43:21;;;;;;;0.90;0.60;;;;;;;12.12;36.43;99000.03;6217306;23;20185;-89
2022/01/17 13:45:49;;;;;;;3.90;1.57;;;;;;;11.97;37.01;98992.25;6216546;23;20155;-90
2022/01/17 13:48:20;;;;;;;4.40;1.10;;;;;;;12.10;37.10;98986.16;6216534;23;20170;-90
2022/01/17 13:51:03;;;;;;;1.70;0.90;;;;;;;12.09;37.55;98983.59;6190318;23;20160;-92
2022/01/17 13:53:32;;;;;;;1.97;0.87;;;;;;;12.18;36.69;98998.81;6188379;23;20196;-89
2022/01/17 13:56:03;;;;;;;2.13;1.03;;;;;;;12.33;37.04;99005.75;6216542;23;20265;-92
2022/01/17 14:01:41;;;;;;;1.80;0.80;;;;;;;12.08;36.40;99024.78;6216094;23;20160;-91
2022/01/17 14:04:14;;;;;;;2.03;1.10;;;;;;;12.25;36.99;99027.25;6217043;23;20189;-94
2022/01/17 14:06:40;;;;;;;2.83;1.40;;;;;;;12.21;37.45;99017.84;6216777;23;20576;-91
2022/01/17 14:09:14;;;;;;;2.70;1.10;;;;;;;12.43;37.51;99020.00;6216518;23;20147;-92
2022/01/17 14:11:47;;;;;;;3.90;1.27;;;;;;;11.96;36.85;99029.94;6216721;23;20136;-92
2022/01/17 14:14:21;;;;;;;1.53;0.90;;;;;;;11.90;37.09;99023.28;6216199;23;20184;-91
2022/01/17 14:16:53;;;;;;;2.90;1.30;;;;;;;11.82;37.53;99022.06;6216339;23;20177;-91
2022/01/17 14:19:22;;;;;;;1.93;0.90;;;;;;;11.97;37.26;99015.88;6189755;23;20156;-90
2022/01/17 14:21:49;;;;;;;2.83;0.90;;;;;;;11.91;36.87;99011.84;6215856;23;20182;-91
2022/01/17 14:24:24;;;;;;;2.23;0.90;;;;;;;11.74;37.60;99001.47;6215862;23;20147;-92
2022/01/17 14:27:02;;;;;;;2.17;1.07;;;;;;;11.82;37.39;98995.78;6216338;23;20142;-91
2022/01/17 14:29:30;;;;;;;1.17;0.67;;;;;;;11.66;37.62;98990.59;6216463;23;20135;-90
2022/01/17 14:31:58;;;;;;;2.07;0.80;;;;;;;11.51;36.96;98989.69;6215737;23;20181;-87
2022/01/17 14:34:35;;;;;;;1.40;0.77;;;;;;;11.66;36.81;98991.41;6215806;23;20182;-90
2022/01/17 14:37:07;;;;;;;3.27;1.00;;;;;;;11.70;36.95;98986.84;6214477;23;20541;-90
2022/01/17 14:39:46;;;;;;;1.40;0.53;;;;;;;11.57;37.34;98976.22;6215837;23;20139;-93
2022/01/17 14:43:00;;;;;;;2.03;1.17;;;;;;;11.35;37.25;98973.13;6216290;23;20145;-91
2022/01/17 14:45:30;;;;;;;3.17;1.40;;;;;;;11.49;38.06;98972.34;6186835;23;20153;-92
2022/01/17 14:47:56;;;;;;;1.93;0.83;;;;;;;11.48;37.86;98970.63;6190179;23;20559;-92
2022/01/17 14:50:24;;;;;;;1.57;0.83;;;;;;;11.77;37.86;98961.06;6189670;23;20161;-91
2022/01/17 14:53:17;;;;;;;3.07;1.23;;;;;;;11.74;37.93;98954.22;6215941;23;20151;-91
2022/01/17 15:01:25;;;;;;;5.17;1.57;;;;;;;10.88;39.65;98954.88;6216164;23;20229;-92
2022/01/17 15:06:59;;;;;;;;;;;;;;;;;;;;;
2022/01/17 15:09:32;;;;;;;2.33;1.10;;;;;;;10.42;40.93;98938.28;6216464;23;20216;-93